Colville Lake, Northwest Territories

Past 24 Hour Conditions

This table is a summary of hourly weather conditions for the past 24 hours. This summary includes the following parameters: temperature, humidity, dew point, wind speed and direction, air pressure, visibility and/or wind chill and humidex.
Date / Time
(MDT)
Conditions Temp (°F) Humidity (%) Dew Point (°F) Wind (mph) Pressure (inches) Vis (mi) Wind Chill
18 April 2014
7:00 N/A 13 89 10 W 5 29.6 N/A 5
6:00 N/A 15 88 12 SSW 2 29.6 N/A 12
5:00 N/A 16 86 12 calm 29.6 N/A 14
4:00 N/A 17 81 12 SSE 2 29.6 N/A 14
3:00 N/A 19 76 13 calm 29.6 N/A *
2:00 N/A 21 76 14 E 4 29.6 N/A 14
1:00 N/A 21 72 14 ENE 4 29.6 N/A 16
00:00 N/A 25 66 15 ENE 6 29.6 N/A 19
17 April 2014
23:00 N/A 29 60 17 ENE 4 29.6 N/A 25
22:00 N/A 31 58 18 ESE 8 29.6 N/A 23
21:00 N/A 35 49 18 ESE 7 29.6 N/A *
20:00 N/A 38 44 18 ESE 8 29.6 N/A *
19:00 N/A 38 46 19 E 8 29.6 N/A *
18:00 N/A 39   47 20 ESE 6 29.6 N/A *
17:00 N/A 38 46 19 E 11 29.6 N/A *
16:00 N/A 34 61 22 calm 29.7 N/A *
15:00 N/A 30 66 19 WNW 3 29.7 N/A 26
14:00 N/A 24 75 17 WNW 3 29.7 N/A 20
13:00 N/A 21 67 12 NW 2 29.7 N/A 19
12:00 N/A 21 65 11 calm 29.7 N/A *
11:00 N/A 19 63 8 calm 29.7 N/A 17
10:00 N/A 18 66 9 WSW 3 29.7 N/A 14
9:00 N/A 18 65 8 SSW 2 29.7 N/A 15
8:00 N/A 17 67 8 calm 29.8 N/A 15
7:00 N/A 11   82 6 SW 2 29.8 N/A 6
N/A
Not available
 ↑ 
Highest temperature
 ↓ 
Lowest temperature
*
Value not significant.

If you require additional historical weather information, please visit Climate Data Online.